createdAt,value
2023-03-29T00:02:07.620Z,144268.34
2023-03-29T00:04:35.186Z,144291.34
2023-03-29T00:07:04.505Z,144258.69
2023-03-29T00:09:33.229Z,144287.75
2023-03-29T00:12:01.658Z,144241.72
2023-03-29T00:14:30.790Z,144281.66
2023-03-29T00:16:59.013Z,144268.34
2023-03-29T00:19:26.479Z,144220.00
2023-03-29T00:21:53.511Z,144293.78
2023-03-29T00:24:23.866Z,144234.50
2023-03-29T00:26:51.050Z,144261.13
2023-03-29T00:29:18.153Z,144280.47
2023-03-29T00:31:51.315Z,144290.16
2023-03-29T00:34:18.440Z,144294.97
2023-03-29T00:36:45.802Z,144279.28
2023-03-29T00:39:12.817Z,144278.03
2023-03-29T00:41:39.796Z,144265.97
2023-03-29T00:44:08.194Z,144265.97
2023-03-29T00:46:35.921Z,144239.34
2023-03-29T00:49:12.603Z,144278.03
2023-03-29T00:51:41.353Z,144299.81
2023-03-29T00:54:14.639Z,144309.50
2023-03-29T00:56:46.506Z,144252.66
2023-03-29T00:59:18.748Z,144302.25
2023-03-29T01:01:54.575Z,144239.34
2023-03-29T01:04:36.373Z,144290.16
2023-03-29T01:07:13.566Z,144291.34
2023-03-29T01:09:45.749Z,144244.19
2023-03-29T01:16:02.726Z,144270.81
2023-03-29T01:18:31.340Z,144272.00
2023-03-29T01:21:16.419Z,144284.13
2023-03-29T01:24:18.032Z,144278.03
2023-03-29T01:26:51.190Z,144272.00
2023-03-29T01:29:27.253Z,144281.66
2023-03-29T01:32:08.797Z,144280.47
2023-03-29T01:34:51.511Z,144284.13
2023-03-29T01:37:27.722Z,144280.47
2023-03-29T01:39:54.892Z,144265.97
2023-03-29T01:42:48.259Z,144269.59
2023-03-29T01:45:26.805Z,144279.28
2023-03-29T01:48:06.777Z,144241.72
2023-03-29T01:50:54.244Z,144276.84
2023-03-29T01:53:41.161Z,144282.88
2023-03-29T01:56:21.523Z,144258.69
2023-03-29T01:58:53.957Z,144270.81
2023-03-29T02:01:26.036Z,144263.53
2023-03-29T02:03:57.687Z,144258.69
2023-03-29T02:06:27.810Z,144236.91
2023-03-29T02:08:55.775Z,144288.94
2023-03-29T02:11:25.848Z,144275.63
2023-03-29T02:13:53.367Z,144216.38
2023-03-29T02:16:20.676Z,144233.31
2023-03-29T02:18:50.360Z,144268.34
2023-03-29T02:21:27.013Z,144259.88
2023-03-29T02:23:55.751Z,144244.19
2023-03-29T02:26:24.176Z,144246.56
2023-03-29T02:28:52.705Z,144251.47
2023-03-29T02:31:29.269Z,144278.03
2023-03-29T02:34:04.637Z,144280.47
2023-03-29T02:36:41.915Z,144268.34
2023-03-29T02:39:15.500Z,144250.22
2023-03-29T02:41:45.804Z,144275.63
2023-03-29T02:44:20.364Z,144268.34
2023-03-29T02:46:52.328Z,144251.47
2023-03-29T02:49:19.578Z,144249.00
2023-03-29T02:51:51.254Z,144256.28
2023-03-29T02:54:21.961Z,144255.03
2023-03-29T02:56:56.388Z,144234.50
2023-03-29T02:59:44.528Z,144250.22
2023-03-29T03:02:11.796Z,144215.16
2023-03-29T03:04:39.175Z,144270.81
2023-03-29T03:07:06.189Z,144268.34
2023-03-29T03:09:33.633Z,144210.28
2023-03-29T03:12:00.972Z,144275.63
2023-03-29T03:14:28.240Z,144236.91
2023-03-29T03:16:57.731Z,144268.34
2023-03-29T03:19:24.954Z,144253.84
2023-03-29T03:21:52.077Z,144278.03
2023-03-29T03:24:19.217Z,144249.00
2023-03-29T03:26:46.618Z,144215.16
2023-03-29T03:29:15.442Z,144299.81
2023-03-29T03:31:54.950Z,144265.97
2023-03-29T03:34:55.939Z,144290.16
2023-03-29T03:37:25.634Z,144233.31
2023-03-29T03:39:53.520Z,144307.09
2023-03-29T03:42:21.549Z,144299.81
2023-03-29T03:44:49.744Z,144282.88
2023-03-29T03:47:37.739Z,144297.44
2023-03-29T03:50:19.109Z,144321.59
2023-03-29T03:52:46.478Z,144249.00
2023-03-29T03:55:14.217Z,144308.28
2023-03-29T03:57:45.277Z,144278.03
2023-03-29T04:00:24.267Z,144304.66
2023-03-29T04:03:18.023Z,144337.31
2023-03-29T04:05:46.225Z,144313.13
2023-03-29T04:08:15.302Z,144327.66
2023-03-29T04:11:02.034Z,144331.28
2023-03-29T04:13:36.117Z,144331.28
2023-03-29T04:16:38.236Z,144292.59
2023-03-29T04:19:25.262Z,144276.84
2023-03-29T04:21:52.473Z,144333.72
2023-03-29T04:24:19.749Z,144292.59
2023-03-29T04:27:06.195Z,144298.63
2023-03-29T04:29:33.311Z,144328.88
2023-03-29T04:32:14.433Z,144297.44
2023-03-29T04:34:53.530Z,144330.09
2023-03-29T04:37:22.281Z,144331.28
2023-03-29T04:39:52.433Z,144348.25
2023-03-29T04:42:19.736Z,144338.56
2023-03-29T04:44:47.809Z,144343.41
2023-03-29T04:47:21.377Z,144311.94
2023-03-29T04:49:52.777Z,144287.75
2023-03-29T04:52:39.078Z,144356.72
2023-03-29T04:55:08.028Z,144362.75
2023-03-29T04:57:55.773Z,144258.69
2023-03-29T05:00:34.937Z,144304.66
2023-03-29T05:03:08.065Z,144350.63
2023-03-29T05:05:39.409Z,144328.88
2023-03-29T05:08:09.380Z,144302.25
2023-03-29T05:10:58.899Z,144350.63
2023-03-29T05:13:27.797Z,144361.56
2023-03-29T05:15:54.940Z,144365.19
2023-03-29T05:18:22.112Z,144361.56
2023-03-29T05:20:51.273Z,144370.03
2023-03-29T05:23:19.204Z,144338.56
2023-03-29T05:26:08.120Z,144389.38
2023-03-29T05:28:35.688Z,144399.06
2023-03-29T05:31:05.775Z,144394.22
2023-03-29T05:33:35.428Z,144411.19
2023-03-29T05:36:11.031Z,144417.22
2023-03-29T05:38:52.361Z,144379.69
2023-03-29T05:41:22.696Z,144362.75
2023-03-29T05:44:09.142Z,144420.84
2023-03-29T05:46:38.737Z,144423.25
2023-03-29T05:49:06.717Z,144394.22
2023-03-29T05:51:48.664Z,144411.19
2023-03-29T05:54:15.752Z,144439.00
2023-03-29T05:56:42.938Z,144425.69
2023-03-29T05:59:10.035Z,144434.16
2023-03-29T06:01:37.195Z,144423.25
2023-03-29T06:04:07.727Z,144457.16
2023-03-29T06:06:43.767Z,144471.69
2023-03-29T06:09:11.550Z,144492.28
2023-03-29T06:11:56.325Z,144501.97
2023-03-29T06:14:34.536Z,144514.06
2023-03-29T06:17:12.183Z,144541.88
2023-03-29T06:19:39.269Z,144517.69
2023-03-29T06:22:06.330Z,144529.81
2023-03-29T06:24:34.625Z,144563.69
2023-03-29T06:27:07.473Z,144509.22
2023-03-29T06:29:34.622Z,144537.06
2023-03-29T06:32:02.033Z,144549.19
2023-03-29T06:34:45.944Z,144574.63
2023-03-29T06:37:32.429Z,144587.94
2023-03-29T06:40:10.045Z,144584.31
2023-03-29T06:42:45.914Z,144563.69
2023-03-29T06:45:36.480Z,144604.88
2023-03-29T06:48:08.764Z,144587.94
2023-03-29T06:50:36.141Z,144618.19
2023-03-29T06:53:11.543Z,144558.84
2023-03-29T06:55:39.832Z,144608.50
2023-03-29T06:58:27.424Z,144619.44
2023-03-29T07:01:00.721Z,144674.00
2023-03-29T07:03:46.689Z,144646.06
2023-03-29T07:06:16.462Z,144705.44
2023-03-29T07:08:43.880Z,144671.56
2023-03-29T07:11:20.321Z,144735.75
2023-03-29T07:13:58.397Z,144784.25
2023-03-29T07:16:27.240Z,144745.44
2023-03-29T07:19:17.461Z,144773.31
2023-03-29T07:22:04.941Z,144769.72
2023-03-29T07:24:42.078Z,144838.78
2023-03-29T07:27:09.627Z,144864.22
2023-03-29T07:29:37.135Z,144900.56
2023-03-29T07:32:04.269Z,144909.06
2023-03-29T07:34:43.588Z,144859.34
2023-03-29T07:37:20.771Z,144984.25
2023-03-29T07:39:47.855Z,144978.16
2023-03-29T07:42:29.393Z,144944.22
2023-03-29T07:44:58.495Z,144949.09
2023-03-29T07:47:30.500Z,144990.31
2023-03-29T07:49:59.106Z,145012.13
2023-03-29T07:52:28.834Z,145007.28
2023-03-29T07:54:56.993Z,144995.16
2023-03-29T07:57:37.560Z,145099.47
2023-03-29T08:00:16.152Z,145099.47
2023-03-29T08:02:53.658Z,145095.81
2023-03-29T08:05:37.846Z,145138.31
2023-03-29T08:08:11.037Z,145082.47
2023-03-29T08:11:00.661Z,145094.59
2023-03-29T08:13:43.813Z,145133.44
2023-03-29T08:16:33.878Z,145186.78
2023-03-29T08:19:07.583Z,145236.56
2023-03-29T08:21:54.974Z,145271.81
2023-03-29T08:24:24.914Z,145218.34
2023-03-29T08:26:56.834Z,145288.81
2023-03-29T08:29:26.969Z,145317.91
2023-03-29T08:31:56.300Z,145321.56
2023-03-29T08:34:23.754Z,145315.50
2023-03-29T08:37:08.486Z,145291.22
2023-03-29T08:39:40.999Z,145316.72
2023-03-29T08:42:38.781Z,145328.88
2023-03-29T08:45:16.070Z,145330.06
2023-03-29T08:48:10.954Z,145376.19
2023-03-29T08:50:47.802Z,145400.47
2023-03-29T08:53:20.532Z,145416.28
2023-03-29T08:56:22.985Z,145487.88
2023-03-29T08:59:25.885Z,145361.63
2023-03-29T09:01:57.061Z,145371.34
2023-03-29T09:04:30.378Z,145315.50
2023-03-29T09:07:11.895Z,145390.75
2023-03-29T09:09:43.887Z,145347.09
2023-03-29T09:12:49.630Z,145330.06
2023-03-29T09:15:24.158Z,145383.50
2023-03-29T09:18:34.571Z,145405.31
2023-03-29T09:21:20.387Z,145393.22
2023-03-29T09:24:10.104Z,145296.06
2023-03-29T09:26:56.146Z,145400.47
2023-03-29T09:29:36.237Z,145449.03
2023-03-29T09:32:13.475Z,145469.66
2023-03-29T09:34:44.883Z,145501.25
2023-03-29T09:37:39.778Z,145552.28
2023-03-29T09:40:53.661Z,145615.44
2023-03-29T09:43:33.233Z,145670.09
2023-03-29T09:46:15.758Z,145638.56
2023-03-29T09:48:45.705Z,145631.25
2023-03-29T09:51:14.543Z,145572.91
2023-03-29T09:53:41.724Z,145679.84
2023-03-29T09:56:24.872Z,145683.47
2023-03-29T09:58:59.687Z,145611.81
2023-03-29T10:01:37.855Z,145648.28
2023-03-29T10:04:09.367Z,145672.56
2023-03-29T10:06:49.099Z,145722.44
2023-03-29T10:09:22.574Z,145698.09
2023-03-29T10:11:56.630Z,145691.97
2023-03-29T10:14:53.593Z,145784.38
2023-03-29T10:17:29.359Z,145801.41
2023-03-29T10:20:01.508Z,145847.59
2023-03-29T10:22:37.617Z,145870.69
2023-03-29T10:25:13.227Z,145781.97
2023-03-29T10:27:42.385Z,145676.19
2023-03-29T10:30:13.194Z,145675.00
2023-03-29T10:32:41.120Z,145755.22
2023-03-29T10:35:24.860Z,145791.69
2023-03-29T10:37:55.086Z,145779.53
2023-03-29T10:40:30.713Z,145833.03
2023-03-29T10:43:19.309Z,145794.16
2023-03-29T10:45:51.709Z,145752.81
2023-03-29T10:48:24.886Z,145803.88
2023-03-29T10:50:54.530Z,145789.28
2023-03-29T10:53:33.519Z,145826.97
2023-03-29T10:56:07.694Z,145899.91
2023-03-29T10:58:41.211Z,145920.56
2023-03-29T11:01:18.228Z,145884.06
2023-03-29T11:04:00.976Z,145935.19
2023-03-29T11:06:33.016Z,145942.44
2023-03-29T11:09:06.730Z,145978.94
2023-03-29T11:12:01.102Z,146008.16
2023-03-29T11:14:41.856Z,145998.38
2023-03-29T11:17:21.445Z,145969.22
2023-03-29T11:20:31.818Z,145957.03
2023-03-29T11:23:18.047Z,145916.94
2023-03-29T11:25:57.304Z,145898.69
2023-03-29T11:28:52.989Z,145891.38
2023-03-29T11:31:22.831Z,145865.84
2023-03-29T11:34:07.974Z,145903.56
2023-03-29T11:36:44.566Z,146003.25
2023-03-29T11:39:28.590Z,146017.88
2023-03-29T11:42:07.782Z,146073.81
2023-03-29T11:44:36.391Z,146184.56
2023-03-29T11:47:09.842Z,146247.88
2023-03-29T11:50:14.669Z,146336.75
2023-03-29T11:52:51.264Z,146283.19
2023-03-29T11:55:30.382Z,146357.44
2023-03-29T11:58:15.550Z,146350.13
2023-03-29T12:00:48.333Z,146387.88
2023-03-29T12:03:44.172Z,146482.94
2023-03-29T12:06:31.781Z,146501.19
2023-03-29T12:09:23.867Z,146419.59
2023-03-29T12:12:04.156Z,146376.91
2023-03-29T12:14:49.226Z,146409.88
2023-03-29T12:17:21.893Z,146344.03
2023-03-29T12:19:59.484Z,146298.97
2023-03-29T12:22:26.764Z,146404.91
2023-03-29T12:24:55.694Z,146408.56
2023-03-29T12:27:49.777Z,146495.09
2023-03-29T12:30:28.608Z,146563.31
2023-03-29T12:33:22.491Z,146587.66
2023-03-29T12:36:35.857Z,146614.47
2023-03-29T12:39:33.344Z,146604.72
2023-03-29T12:42:21.629Z,146582.78
2023-03-29T12:45:19.888Z,146603.50
2023-03-29T12:47:50.917Z,146486.56
2023-03-29T12:50:28.250Z,146597.44
2023-03-29T12:53:06.183Z,146697.31
2023-03-29T12:55:43.551Z,146712.03
2023-03-29T12:58:26.230Z,146719.31
2023-03-29T13:01:10.532Z,146738.84
2023-03-29T13:03:40.357Z,146785.16
2023-03-29T13:06:10.866Z,146792.44
2023-03-29T13:08:44.038Z,146793.69
2023-03-29T13:11:23.789Z,146736.38
2023-03-29T13:13:52.221Z,146731.50
2023-03-29T13:16:29.044Z,146715.63
2023-03-29T13:19:15.516Z,146677.81
2023-03-29T13:21:59.254Z,146780.28
2023-03-29T13:24:57.730Z,146758.34
2023-03-29T13:27:39.584Z,146702.22
2023-03-29T13:30:23.330Z,146772.94
2023-03-29T13:33:07.274Z,146731.50
2023-03-29T13:36:00.509Z,146755.88
2023-03-29T13:38:31.932Z,146811.97
2023-03-29T13:41:02.220Z,146811.97
2023-03-29T13:43:49.554Z,146887.53
2023-03-29T13:46:25.564Z,146790.03
2023-03-29T13:49:00.129Z,146824.13
2023-03-29T13:51:38.025Z,146833.88
2023-03-29T13:54:16.585Z,146777.81
2023-03-29T13:56:57.096Z,146760.75
2023-03-29T13:59:31.918Z,146857.06
2023-03-29T14:02:02.769Z,146877.78
2023-03-29T14:04:37.717Z,146853.44
2023-03-29T14:07:08.123Z,146931.47
2023-03-29T14:09:42.430Z,146916.78
2023-03-29T14:12:13.398Z,146900.97
2023-03-29T14:14:56.050Z,146909.50
2023-03-29T14:17:26.845Z,146907.03
2023-03-29T14:19:58.005Z,146929.00
2023-03-29T14:22:31.019Z,146926.59
2023-03-29T14:25:02.390Z,146957.03
2023-03-29T14:27:31.786Z,146970.47
2023-03-29T14:29:58.892Z,146911.91
2023-03-29T14:32:31.202Z,146843.63
2023-03-29T14:35:00.153Z,146763.19
2023-03-29T14:37:28.941Z,146753.47
2023-03-29T14:39:56.878Z,146753.47
2023-03-29T14:42:28.685Z,146768.06
2023-03-29T14:45:04.139Z,146741.25
2023-03-29T14:47:33.566Z,146794.91
2023-03-29T14:50:01.712Z,146807.06
2023-03-29T14:52:31.010Z,146848.56
2023-03-29T14:55:02.282Z,146803.44
2023-03-29T14:57:35.384Z,146783.91
2023-03-29T15:00:17.204Z,146814.41
2023-03-29T15:02:57.806Z,146763.19
2023-03-29T15:05:32.905Z,146813.19
2023-03-29T15:08:02.000Z,146872.91
2023-03-29T15:10:33.280Z,146855.84
2023-03-29T15:13:03.654Z,146820.47
2023-03-29T15:15:34.611Z,146833.88
2023-03-29T15:18:06.809Z,146731.50
2023-03-29T15:20:37.730Z,146802.19
2023-03-29T15:23:16.966Z,146760.75
2023-03-29T15:26:08.579Z,146763.19
2023-03-29T15:28:44.667Z,146744.91
2023-03-29T15:31:14.493Z,146719.31
2023-03-29T15:33:42.279Z,146708.31
2023-03-29T15:36:12.363Z,146643.72
2023-03-29T15:38:44.467Z,146632.72
2023-03-29T15:41:13.905Z,146636.41
2023-03-29T15:43:41.874Z,146705.84
2023-03-29T15:46:12.748Z,146700.97
2023-03-29T15:48:40.453Z,146753.47
2023-03-29T15:51:09.179Z,146755.88
2023-03-29T15:53:36.215Z,146799.78
2023-03-29T15:56:07.661Z,146811.97
2023-03-29T15:58:35.865Z,146799.78
2023-03-29T16:01:33.667Z,146792.44
2023-03-29T16:04:05.329Z,146782.69
2023-03-29T16:06:34.226Z,146758.34
2023-03-29T16:09:01.891Z,146724.19
2023-03-29T16:11:28.978Z,146746.13
2023-03-29T16:13:56.866Z,146733.94
2023-03-29T16:16:24.582Z,146626.66
2023-03-29T16:18:51.848Z,146625.44
2023-03-29T16:21:22.018Z,146690.03
2023-03-29T16:23:49.083Z,146651.00
2023-03-29T16:26:17.260Z,146655.88
2023-03-29T16:28:44.266Z,146646.13
2023-03-29T16:31:13.146Z,146651.00
2023-03-29T16:33:41.373Z,146648.59
2023-03-29T16:36:09.764Z,146582.78
2023-03-29T16:38:37.026Z,146588.91
2023-03-29T16:41:04.307Z,146571.84
2023-03-29T16:43:31.569Z,146551.09
2023-03-29T16:45:58.641Z,146548.69
2023-03-29T16:48:27.024Z,146482.94
2023-03-29T16:50:54.139Z,146581.56
2023-03-29T16:53:21.689Z,146504.81
2023-03-29T16:55:49.505Z,146526.75
2023-03-29T16:58:16.639Z,146514.56
2023-03-29T17:00:47.255Z,146537.75
2023-03-29T17:03:16.184Z,146482.94
2023-03-29T17:05:47.818Z,146451.25
2023-03-29T17:08:14.829Z,146471.94
2023-03-29T17:10:42.579Z,146470.75
2023-03-29T17:13:09.928Z,146502.41
2023-03-29T17:15:39.550Z,146434.19
2023-03-29T17:18:07.185Z,146501.19
2023-03-29T17:20:34.461Z,146492.66
2023-03-29T17:23:01.446Z,146481.69
2023-03-29T17:25:28.816Z,146482.94
2023-03-29T17:27:55.957Z,146468.28
2023-03-29T17:30:23.143Z,146473.16
2023-03-29T17:32:52.094Z,146465.88
2023-03-29T17:35:19.573Z,146395.16
2023-03-29T17:37:46.702Z,146440.28
2023-03-29T17:40:14.009Z,146440.28
2023-03-29T17:42:42.146Z,146459.75
2023-03-29T17:45:10.859Z,146429.34
2023-03-29T17:47:38.632Z,146445.16
2023-03-29T17:50:07.078Z,146422.00
2023-03-29T17:52:34.701Z,146442.72
2023-03-29T17:55:02.051Z,146448.81
2023-03-29T17:57:29.120Z,146392.75
2023-03-29T18:04:33.996Z,146417.13
2023-03-29T18:07:01.216Z,146419.59
2023-03-29T18:09:30.592Z,146406.16
2023-03-29T18:11:58.073Z,146383.03
2023-03-29T18:14:25.297Z,146374.50
2023-03-29T18:16:52.561Z,146408.56
2023-03-29T18:19:20.208Z,146365.97
2023-03-29T18:21:47.358Z,146396.41
2023-03-29T18:24:14.638Z,146326.97
2023-03-29T18:26:41.646Z,146350.13
2023-03-29T18:29:09.931Z,146363.50
2023-03-29T18:31:37.226Z,146361.09
2023-03-29T18:34:04.338Z,146329.44
2023-03-29T18:36:32.248Z,146361.09
2023-03-29T18:39:05.391Z,146346.50
2023-03-29T18:41:34.571Z,146308.72
2023-03-29T18:44:01.884Z,146273.44
2023-03-29T18:46:31.356Z,146256.41
2023-03-29T18:49:01.293Z,146273.44
2023-03-29T18:51:28.413Z,146335.50
2023-03-29T18:53:56.012Z,146318.50
2023-03-29T18:56:23.357Z,146329.44
2023-03-29T18:58:50.503Z,146331.84
2023-03-29T19:01:17.986Z,146319.69
2023-03-29T19:03:45.214Z,146317.25
2023-03-29T19:06:12.939Z,146280.72
2023-03-29T19:08:41.470Z,146314.84
2023-03-29T19:11:11.651Z,146305.09
2023-03-29T19:13:38.814Z,146266.13
2023-03-29T19:16:06.364Z,146302.66
2023-03-29T19:18:33.732Z,146271.00
2023-03-29T19:21:00.919Z,146301.44
2023-03-29T19:23:28.344Z,146283.19
2023-03-29T19:26:00.720Z,146300.25
2023-03-29T19:28:29.136Z,146244.22
2023-03-29T19:30:58.684Z,146297.78
2023-03-29T19:33:26.596Z,146292.91
2023-03-29T19:35:53.653Z,146256.41
2023-03-29T19:38:20.988Z,146227.22
2023-03-29T19:40:49.656Z,146273.44
2023-03-29T19:43:17.138Z,146268.59
2023-03-29T19:45:45.960Z,146256.41
2023-03-29T19:48:21.862Z,146183.38
2023-03-29T19:50:50.566Z,146247.88
2023-03-29T19:53:17.581Z,146224.75
2023-03-29T19:55:45.572Z,146218.69
2023-03-29T19:58:13.065Z,146154.19
2023-03-29T20:00:41.499Z,146159.06
2023-03-29T20:03:14.678Z,146176.06
2023-03-29T20:05:42.167Z,146180.91
2023-03-29T20:08:09.399Z,146134.69
2023-03-29T20:10:36.606Z,146145.66
2023-03-29T20:13:06.055Z,146146.88
2023-03-29T20:15:34.926Z,146150.53
2023-03-29T20:18:02.098Z,146093.31
2023-03-29T20:20:29.907Z,146105.50
2023-03-29T20:23:04.694Z,146112.78
2023-03-29T20:25:34.500Z,146112.78
2023-03-29T20:28:01.953Z,146110.38
2023-03-29T20:30:28.991Z,146109.16
2023-03-29T20:32:56.029Z,146112.78
2023-03-29T20:35:23.134Z,146033.66
2023-03-29T20:37:50.099Z,146078.72
2023-03-29T20:40:17.347Z,146071.38
2023-03-29T20:42:46.176Z,146081.19
2023-03-29T20:45:18.577Z,146061.63
2023-03-29T20:47:50.365Z,146059.22
2023-03-29T20:50:19.040Z,146059.22
2023-03-29T20:52:46.267Z,146073.81
2023-03-29T20:55:13.493Z,146061.63
2023-03-29T20:57:42.087Z,146062.91
2023-03-29T21:00:12.452Z,146050.72
2023-03-29T21:02:39.581Z,146003.25
2023-03-29T21:05:08.517Z,145958.28
2023-03-29T21:07:35.525Z,146022.75
2023-03-29T21:10:12.864Z,145959.50
2023-03-29T21:12:41.041Z,145992.31
2023-03-29T21:15:24.007Z,145936.38
2023-03-29T21:17:51.206Z,145983.81
2023-03-29T21:20:18.477Z,145918.16
2023-03-29T21:22:45.581Z,145915.69
2023-03-29T21:25:16.933Z,145887.72
2023-03-29T21:27:44.124Z,145932.72
2023-03-29T21:30:11.619Z,145830.63
2023-03-29T21:32:38.966Z,145898.69
2023-03-29T21:35:06.732Z,145890.19
2023-03-29T21:37:33.948Z,145864.63
2023-03-29T21:40:05.178Z,145856.13
2023-03-29T21:42:33.468Z,145835.47
2023-03-29T21:45:00.822Z,145811.13
2023-03-29T21:47:28.210Z,145784.38
2023-03-29T21:49:55.317Z,145794.16
2023-03-29T21:52:22.465Z,145775.91
2023-03-29T21:54:49.495Z,145744.31
2023-03-29T21:57:16.571Z,145755.22
2023-03-29T21:59:43.615Z,145772.25
2023-03-29T22:02:10.798Z,145677.41
2023-03-29T22:04:37.981Z,145732.16
2023-03-29T22:07:06.010Z,145721.22
2023-03-29T22:09:34.910Z,145752.81
2023-03-29T22:12:03.572Z,145728.50
2023-03-29T22:14:34.593Z,145733.34
2023-03-29T22:17:02.701Z,145728.50
2023-03-29T22:19:29.823Z,145723.63
2023-03-29T22:22:01.411Z,145721.22
2023-03-29T22:24:28.994Z,145711.50
2023-03-29T22:26:56.216Z,145676.19
2023-03-29T22:29:23.411Z,145691.97
2023-03-29T22:31:50.498Z,145655.53
2023-03-29T22:34:17.656Z,145647.03
2023-03-29T22:36:44.764Z,145679.84
2023-03-29T22:39:12.005Z,145636.09
2023-03-29T22:41:39.413Z,145664.03
2023-03-29T22:44:07.044Z,145628.78
2023-03-29T22:46:34.186Z,145643.41
2023-03-29T22:49:01.476Z,145645.81
2023-03-29T22:51:28.527Z,145631.25
2023-03-29T22:53:55.628Z,145616.69
2023-03-29T22:56:23.145Z,145677.41
2023-03-29T22:58:50.521Z,145665.25
2023-03-29T23:01:17.541Z,145611.81
2023-03-29T23:03:44.619Z,145628.78
2023-03-29T23:06:11.596Z,145628.78
2023-03-29T23:08:38.572Z,145664.03
2023-03-29T23:11:07.320Z,145622.72
2023-03-29T23:13:35.009Z,145643.41
2023-03-29T23:16:03.546Z,145660.38
2023-03-29T23:18:34.465Z,145659.19
2023-03-29T23:21:02.437Z,145677.41
2023-03-29T23:23:29.698Z,145668.91
2023-03-29T23:25:57.204Z,145565.66
2023-03-29T23:28:27.135Z,145662.84
2023-03-29T23:30:57.163Z,145640.97
2023-03-29T23:33:27.929Z,145628.78
2023-03-29T23:35:55.079Z,145614.22
2023-03-29T23:38:23.118Z,145603.31
2023-03-29T23:40:59.079Z,145586.28
2023-03-29T23:43:31.700Z,145597.19
2023-03-29T23:46:00.156Z,145574.13
2023-03-29T23:48:27.241Z,145574.13
2023-03-29T23:50:56.856Z,145521.91
2023-03-29T23:53:28.233Z,145559.56
2023-03-29T23:56:03.575Z,145519.47
2023-03-29T23:58:34.311Z,145502.50
